createdAt,value
2018-04-04T00:00:09.047Z,10.43
2018-04-04T00:02:36.528Z,7.70
2018-04-04T00:05:04.002Z,10.00
2018-04-04T00:07:31.554Z,11.30
2018-04-04T00:09:58.981Z,10.73
2018-04-04T00:12:26.418Z,10.77
2018-04-04T00:14:54.628Z,9.23
2018-04-04T00:17:22.051Z,10.37
2018-04-04T00:19:50.275Z,14.93
2018-04-04T00:22:17.714Z,21.23
2018-04-04T00:24:45.161Z,11.90
2018-04-04T00:27:12.643Z,12.43
2018-04-04T00:29:40.082Z,12.53
2018-04-04T00:32:07.513Z,11.50
2018-04-04T00:34:35.713Z,12.27
2018-04-04T00:37:03.225Z,14.33
2018-04-04T00:39:30.640Z,16.87
2018-04-04T00:41:58.084Z,17.13
2018-04-04T00:44:25.592Z,16.43
2018-04-04T00:46:53.024Z,19.40
2018-04-04T00:49:20.461Z,22.73
2018-04-04T00:51:47.934Z,22.43
2018-04-04T00:54:15.364Z,26.00
2018-04-04T00:56:42.800Z,26.17
2018-04-04T00:59:11.121Z,24.27
2018-04-04T01:01:38.617Z,25.97
2018-04-04T01:04:06.137Z,26.93
2018-04-04T01:06:33.584Z,25.50
2018-04-04T01:09:01.073Z,27.13
2018-04-04T01:11:28.479Z,24.03
2018-04-04T01:13:55.964Z,26.00
2018-04-04T01:16:23.402Z,26.60
2018-04-04T01:18:50.840Z,27.70
2018-04-04T01:21:19.171Z,27.77
2018-04-04T01:23:46.606Z,26.30
2018-04-04T01:26:14.036Z,26.17
2018-04-04T01:28:41.505Z,25.63
2018-04-04T01:31:08.986Z,28.93
2018-04-04T01:33:36.444Z,26.47
2018-04-04T01:36:03.940Z,26.30
2018-04-04T01:38:31.453Z,25.27
2018-04-04T01:40:58.909Z,28.57
2018-04-04T01:43:26.365Z,27.37
2018-04-04T01:45:53.801Z,25.63
2018-04-04T01:48:21.240Z,23.40
2018-04-04T01:50:49.465Z,22.53
2018-04-04T01:53:16.926Z,20.90
2018-04-04T01:55:44.396Z,24.70
2018-04-04T01:58:11.849Z,23.40
2018-04-04T02:00:39.404Z,20.60
2018-04-04T02:03:06.859Z,23.60
2018-04-04T02:05:34.298Z,22.67
2018-04-04T02:08:01.734Z,18.20
2018-04-04T02:10:29.191Z,26.97
2018-04-04T02:12:56.641Z,26.63
2018-04-04T02:15:24.858Z,23.13
2018-04-04T02:17:52.284Z,24.20
2018-04-04T02:20:19.726Z,25.13
2018-04-04T02:22:47.918Z,23.10
2018-04-04T02:25:15.369Z,25.37
2018-04-04T02:27:43.698Z,28.57
2018-04-04T02:30:11.232Z,21.90
2018-04-04T02:32:38.674Z,24.43
2018-04-04T02:35:06.149Z,20.73
2018-04-04T02:37:33.580Z,22.30
2018-04-04T02:40:01.064Z,20.47
2018-04-04T02:42:28.530Z,18.97
2018-04-04T02:44:55.980Z,16.73
2018-04-04T02:47:23.410Z,20.73
2018-04-04T02:49:50.862Z,17.03
2018-04-04T02:52:18.295Z,18.73
2018-04-04T02:54:45.720Z,18.13
2018-04-04T02:57:13.160Z,14.53
2018-04-04T02:59:40.600Z,19.73
2018-04-04T03:02:08.041Z,14.80
2018-04-04T03:04:36.245Z,14.43
2018-04-04T03:07:03.722Z,16.33
2018-04-04T03:09:31.157Z,12.97
2018-04-04T03:11:58.633Z,17.17
2018-04-04T03:14:26.076Z,14.40
2018-04-04T03:16:53.513Z,13.47
2018-04-04T03:19:20.992Z,11.80
2018-04-04T03:21:48.449Z,12.90
2018-04-04T03:24:15.908Z,10.47
2018-04-04T03:26:43.365Z,14.00
2018-04-04T03:29:10.804Z,12.30
2018-04-04T03:31:38.229Z,14.10
2018-04-04T03:34:05.741Z,10.70
2018-04-04T03:36:33.187Z,14.30
2018-04-04T03:39:00.658Z,15.63
2018-04-04T03:41:28.117Z,9.90
2018-04-04T03:43:55.545Z,12.97
2018-04-04T03:46:22.973Z,14.07
2018-04-04T03:48:50.487Z,16.50
2018-04-04T03:51:17.934Z,14.30
2018-04-04T03:53:45.364Z,15.60
2018-04-04T03:56:12.823Z,15.67
2018-04-04T03:58:40.261Z,17.27
2018-04-04T04:01:08.465Z,13.23
2018-04-04T04:03:35.918Z,14.97
2018-04-04T04:06:03.353Z,11.73
2018-04-04T04:08:31.591Z,13.30
2018-04-04T04:10:59.049Z,14.57
2018-04-04T04:13:26.502Z,12.27
2018-04-04T04:15:54.042Z,13.33
2018-04-04T04:18:21.480Z,10.37
2018-04-04T04:20:48.925Z,11.93
2018-04-04T04:23:17.164Z,12.40
2018-04-04T04:25:44.711Z,10.67
2018-04-04T04:28:12.146Z,11.93
2018-04-04T04:30:39.588Z,13.53
2018-04-04T04:33:07.104Z,12.80
2018-04-04T04:35:34.678Z,13.27
2018-04-04T04:38:02.204Z,11.87
2018-04-04T04:40:29.676Z,12.33
2018-04-04T04:42:57.176Z,13.93
2018-04-04T04:45:25.352Z,15.80
2018-04-04T04:47:52.784Z,16.13
2018-04-04T04:50:21.021Z,12.53
2018-04-04T04:52:48.424Z,15.37
2018-04-04T04:55:16.640Z,13.53
2018-04-04T04:57:44.088Z,16.37
2018-04-04T05:00:11.528Z,11.73
2018-04-04T05:02:39.008Z,13.20
2018-04-04T05:05:06.468Z,15.67
2018-04-04T05:07:33.896Z,13.67
2018-04-04T05:10:01.343Z,11.80
2018-04-04T05:12:29.549Z,15.63
2018-04-04T05:14:56.983Z,12.70
2018-04-04T05:17:25.292Z,13.03
2018-04-04T05:19:52.724Z,15.93
2018-04-04T05:22:20.201Z,17.10
2018-04-04T05:24:47.652Z,15.33
2018-04-04T05:27:15.071Z,15.53
2018-04-04T05:29:43.288Z,13.77
2018-04-04T05:32:10.727Z,15.93
2018-04-04T05:34:38.159Z,14.70
2018-04-04T05:37:06.354Z,15.53
2018-04-04T05:39:33.846Z,15.03
2018-04-04T05:42:01.304Z,14.13
2018-04-04T05:44:28.769Z,14.87
2018-04-04T05:46:56.219Z,16.03
2018-04-04T05:49:23.718Z,18.63
2018-04-04T05:51:51.145Z,11.63
2018-04-04T05:54:18.628Z,10.53
2018-04-04T05:56:46.060Z,12.57
2018-04-04T05:59:13.512Z,12.10
2018-04-04T06:01:40.931Z,12.17
2018-04-04T06:04:08.416Z,15.93
2018-04-04T06:06:35.848Z,13.60
2018-04-04T06:09:03.319Z,14.40
2018-04-04T06:11:30.732Z,14.33
2018-04-04T06:13:58.947Z,11.80
2018-04-04T06:16:26.389Z,12.33
2018-04-04T06:18:54.598Z,9.93
2018-04-04T06:21:22.025Z,11.63
2018-04-04T06:23:49.486Z,11.93
2018-04-04T06:26:16.912Z,11.57
2018-04-04T06:28:45.100Z,12.57
2018-04-04T06:31:12.542Z,10.80
2018-04-04T06:33:40.729Z,10.60
2018-04-04T06:36:08.153Z,9.80
2018-04-04T06:38:35.680Z,11.97
2018-04-04T06:41:03.176Z,13.17
2018-04-04T06:43:30.705Z,12.67
2018-04-04T06:45:58.167Z,12.57
2018-04-04T06:48:25.600Z,12.57
2018-04-04T06:50:53.020Z,9.43
2018-04-04T06:53:21.250Z,16.60
2018-04-04T06:55:48.735Z,12.83
2018-04-04T06:58:16.113Z,8.83
2018-04-04T07:00:44.324Z,11.63
2018-04-04T07:03:11.804Z,13.70
2018-04-04T07:05:39.252Z,10.10
2018-04-04T07:08:06.694Z,9.83
2018-04-04T07:10:34.120Z,9.47
2018-04-04T07:13:02.314Z,7.93
2018-04-04T07:15:29.785Z,8.30
2018-04-04T07:17:57.221Z,11.47
2018-04-04T07:20:25.446Z,10.47
2018-04-04T07:22:52.904Z,7.77
2018-04-04T07:25:20.341Z,8.33
2018-04-04T07:27:48.560Z,8.50
2018-04-04T07:30:16.069Z,5.50
2018-04-04T07:32:43.472Z,5.77
2018-04-04T07:35:10.904Z,10.67
2018-04-04T07:37:38.366Z,8.20
2018-04-04T07:40:05.840Z,4.77
2018-04-04T07:42:33.276Z,5.27
2018-04-04T07:45:00.713Z,6.83
2018-04-04T07:47:28.940Z,7.77
2018-04-04T07:49:56.388Z,6.83
2018-04-04T07:52:23.873Z,5.30
2018-04-04T07:54:51.302Z,5.67
2018-04-04T07:57:18.737Z,5.33
2018-04-04T07:59:46.228Z,7.07
2018-04-04T08:02:13.673Z,3.77
2018-04-04T08:04:41.128Z,5.03
2018-04-04T08:07:08.573Z,4.67
2018-04-04T08:09:36.011Z,3.87
2018-04-04T08:12:03.554Z,5.40
2018-04-04T08:14:31.069Z,4.47
2018-04-04T08:16:58.520Z,6.13
2018-04-04T08:19:25.980Z,4.83
2018-04-04T08:21:53.431Z,3.67
2018-04-04T08:24:20.900Z,5.67
2018-04-04T08:26:48.316Z,3.93
2018-04-04T08:29:15.759Z,3.13
2018-04-04T08:31:43.972Z,3.90
2018-04-04T08:34:11.501Z,4.90
2018-04-04T08:36:38.892Z,5.53
2018-04-04T08:39:06.336Z,4.93
2018-04-04T08:41:33.808Z,3.63
2018-04-04T08:44:01.250Z,4.07
2018-04-04T08:46:28.732Z,3.43
2018-04-04T08:48:56.183Z,4.93
2018-04-04T08:51:23.637Z,5.43
2018-04-04T08:53:51.096Z,3.90
2018-04-04T08:56:18.532Z,3.97
2018-04-04T08:58:46.026Z,3.60
2018-04-04T09:01:13.449Z,3.37
2018-04-04T09:03:40.890Z,5.07
2018-04-04T09:06:08.336Z,4.90
2018-04-04T09:08:35.825Z,3.57
2018-04-04T09:11:03.277Z,5.00
2018-04-04T09:13:30.744Z,5.27
2018-04-04T09:15:58.210Z,4.17
2018-04-04T09:18:25.649Z,2.60
2018-04-04T09:20:53.117Z,2.50
2018-04-04T09:23:20.552Z,4.60
2018-04-04T09:25:48.025Z,2.70
2018-04-04T09:28:15.461Z,3.63
2018-04-04T09:30:42.936Z,3.07
2018-04-04T09:33:10.398Z,5.70
2018-04-04T09:35:37.853Z,4.07
2018-04-04T09:38:05.305Z,3.07
2018-04-04T09:40:32.732Z,2.53
2018-04-04T09:43:00.224Z,4.33
2018-04-04T09:45:27.646Z,2.87
2018-04-04T09:47:55.071Z,2.17
2018-04-04T09:50:23.280Z,3.00
2018-04-04T09:52:50.710Z,2.73
2018-04-04T09:55:18.913Z,5.50
2018-04-04T09:57:46.388Z,2.73
2018-04-04T10:00:13.829Z,2.80
2018-04-04T10:02:41.305Z,3.27
2018-04-04T10:05:08.764Z,2.60
2018-04-04T10:07:36.206Z,2.80
2018-04-04T10:10:03.690Z,1.87
2018-04-04T10:12:31.237Z,4.07
2018-04-04T10:14:58.696Z,4.43
2018-04-04T10:17:26.133Z,2.37
2018-04-04T10:19:53.618Z,2.27
2018-04-04T10:22:21.049Z,3.87
2018-04-04T10:24:48.483Z,2.70
2018-04-04T10:27:16.812Z,2.27
2018-04-04T10:29:44.265Z,2.43
2018-04-04T10:32:11.685Z,1.93
2018-04-04T10:34:39.174Z,3.40
2018-04-04T10:37:06.632Z,2.80
2018-04-04T10:39:34.076Z,3.10
2018-04-04T10:42:01.560Z,2.70
2018-04-04T10:44:29.016Z,2.33
2018-04-04T10:46:56.468Z,4.23
2018-04-04T10:49:23.976Z,2.67
2018-04-04T10:51:52.180Z,3.30
2018-04-04T10:54:19.609Z,2.47
2018-04-04T10:56:47.833Z,2.67
2018-04-04T10:59:15.286Z,3.03
2018-04-04T11:01:42.729Z,3.07
2018-04-04T11:04:10.186Z,6.43
2018-04-04T11:06:37.656Z,3.40
2018-04-04T11:09:05.094Z,4.13
2018-04-04T11:11:32.555Z,2.00
2018-04-04T11:14:00.025Z,3.73
2018-04-04T11:16:27.484Z,2.40
2018-04-04T11:18:54.944Z,2.77
2018-04-04T11:21:22.406Z,2.60
2018-04-04T11:23:49.850Z,2.23
2018-04-04T11:26:17.304Z,2.90
2018-04-04T11:28:44.771Z,3.57
2018-04-04T11:31:12.206Z,2.20
2018-04-04T11:33:39.649Z,2.47
2018-04-04T11:36:07.861Z,2.37
2018-04-04T11:38:35.314Z,3.83
2018-04-04T11:41:02.772Z,2.47
2018-04-04T11:43:30.244Z,2.80
2018-04-04T11:45:57.681Z,2.43
2018-04-04T11:48:25.131Z,3.07
2018-04-04T11:50:52.585Z,5.20
2018-04-04T11:53:19.997Z,2.20
2018-04-04T11:55:47.432Z,2.10
2018-04-04T11:58:14.977Z,5.10
2018-04-04T12:00:42.424Z,2.23
2018-04-04T12:03:09.878Z,3.50
2018-04-04T12:05:37.317Z,2.00
2018-04-04T12:08:05.509Z,2.20
2018-04-04T12:10:32.986Z,3.40
2018-04-04T12:13:00.457Z,1.67
2018-04-04T12:15:27.893Z,1.80
2018-04-04T12:17:55.354Z,2.87
2018-04-04T12:20:22.780Z,2.37
2018-04-04T12:22:50.218Z,1.57
2018-04-04T12:25:18.422Z,0.90
2018-04-04T12:27:45.897Z,2.63
2018-04-04T12:30:13.324Z,1.30
2018-04-04T12:32:40.818Z,1.20
2018-04-04T12:35:08.984Z,1.87
2018-04-04T12:37:36.437Z,1.57
2018-04-04T12:40:03.935Z,1.87
2018-04-04T12:42:31.378Z,2.13
2018-04-04T12:44:58.813Z,1.93
2018-04-04T12:47:26.268Z,1.80
2018-04-04T12:49:53.707Z,2.07
2018-04-04T12:52:21.139Z,3.27
2018-04-04T12:54:49.365Z,3.63
2018-04-04T12:57:16.801Z,2.77
2018-04-04T12:59:44.232Z,1.73
2018-04-04T13:02:12.445Z,1.80
2018-04-04T13:04:41.668Z,1.73
2018-04-04T13:07:09.121Z,2.07
2018-04-04T13:09:36.665Z,1.70
2018-04-04T13:12:04.135Z,3.27
2018-04-04T13:14:31.604Z,3.20
2018-04-04T13:16:59.045Z,2.70
2018-04-04T13:19:26.493Z,2.67
2018-04-04T13:21:53.943Z,2.73
2018-04-04T13:24:21.409Z,1.87
2018-04-04T13:26:48.861Z,3.77
2018-04-04T13:29:16.302Z,2.70
2018-04-04T13:31:43.796Z,3.37
2018-04-04T13:34:11.237Z,3.33
2018-04-04T13:36:38.694Z,2.13
2018-04-04T13:39:06.169Z,3.33
2018-04-04T13:41:33.750Z,3.10
2018-04-04T13:44:01.142Z,2.50
2018-04-04T13:46:28.582Z,2.27
2018-04-04T13:48:56.892Z,3.53
2018-04-04T13:51:24.300Z,4.10
2018-04-04T13:53:52.520Z,4.80
2018-04-04T13:56:19.944Z,3.40
2018-04-04T13:58:48.158Z,4.43
2018-04-04T14:01:15.633Z,4.77
2018-04-04T14:03:43.202Z,4.93
2018-04-04T14:06:10.736Z,4.17
2018-04-04T14:08:38.198Z,6.70
2018-04-04T14:11:05.656Z,5.60
2018-04-04T14:13:33.102Z,8.03
2018-04-04T14:16:00.572Z,4.37
2018-04-04T14:18:28.034Z,3.07
2018-04-04T14:20:55.491Z,4.60
2018-04-04T14:23:22.935Z,4.87
2018-04-04T14:25:50.367Z,5.63
2018-04-04T14:28:17.890Z,4.80
2018-04-04T14:30:45.320Z,7.03
2018-04-04T14:33:12.772Z,6.33
2018-04-04T14:35:40.213Z,5.80
2018-04-04T14:38:07.682Z,4.33
2018-04-04T14:40:35.105Z,4.30
2018-04-04T14:43:02.601Z,5.93
2018-04-04T14:45:30.058Z,6.33
2018-04-04T14:47:57.516Z,7.77
2018-04-04T14:50:24.972Z,8.10
2018-04-04T14:52:53.275Z,3.83
2018-04-04T14:55:20.708Z,4.23
2018-04-04T14:57:48.145Z,7.27
2018-04-04T15:00:15.614Z,6.17
2018-04-04T15:02:43.080Z,5.93
2018-04-04T15:05:10.519Z,4.17
2018-04-04T15:07:37.973Z,3.67
2018-04-04T15:10:05.455Z,3.67
2018-04-04T15:12:32.901Z,7.57
2018-04-04T15:15:00.452Z,4.53
2018-04-04T15:17:27.924Z,6.40
2018-04-04T15:19:55.348Z,7.70
2018-04-04T15:22:22.790Z,5.70
2018-04-04T15:24:51.061Z,5.13
2018-04-04T15:27:19.394Z,4.97
2018-04-04T15:29:46.832Z,11.80
2018-04-04T15:32:14.269Z,13.10
2018-04-04T15:34:41.713Z,9.43
2018-04-04T15:37:09.950Z,10.00
2018-04-04T15:39:37.389Z,7.37
2018-04-04T15:42:04.897Z,7.83
2018-04-04T15:44:32.587Z,7.73
2018-04-04T15:47:00.078Z,7.30
2018-04-04T15:49:28.476Z,6.93
2018-04-04T15:51:55.927Z,10.67
2018-04-04T15:54:23.361Z,13.50
2018-04-04T15:56:50.788Z,5.57
2018-04-04T15:59:18.244Z,9.03
2018-04-04T16:01:46.448Z,8.07
2018-04-04T16:04:13.866Z,6.73
2018-04-04T16:06:42.074Z,5.00
2018-04-04T16:09:09.530Z,6.60
2018-04-04T16:11:36.964Z,7.03
2018-04-04T16:14:04.412Z,8.50
2018-04-04T16:16:32.637Z,7.83
2018-04-04T16:19:00.081Z,5.60
2018-04-04T16:21:27.518Z,7.33
2018-04-04T16:23:54.975Z,5.63
2018-04-04T16:26:22.403Z,8.77
2018-04-04T16:28:50.617Z,6.23
2018-04-04T16:31:18.100Z,3.27
2018-04-04T16:33:45.536Z,7.10
2018-04-04T16:36:12.954Z,5.30
2018-04-04T16:38:41.201Z,7.07
2018-04-04T16:41:08.646Z,4.03
2018-04-04T16:43:36.079Z,4.60
2018-04-04T16:46:03.545Z,3.67
2018-04-04T16:48:30.977Z,4.90
2018-04-04T16:50:58.500Z,5.03
2018-04-04T16:53:25.945Z,5.97
2018-04-04T16:55:53.396Z,5.07
2018-04-04T16:58:20.936Z,5.47
2018-04-04T17:00:48.364Z,8.43
2018-04-04T17:03:15.803Z,8.40
2018-04-04T17:05:44.009Z,6.80
2018-04-04T17:08:11.452Z,5.53
2018-04-04T17:10:38.919Z,7.90
2018-04-04T17:13:06.361Z,3.97
2018-04-04T17:15:33.831Z,8.63
2018-04-04T17:18:01.306Z,5.73
2018-04-04T17:20:28.773Z,5.10
2018-04-04T17:22:56.203Z,4.37
2018-04-04T17:25:23.669Z,7.57
2018-04-04T17:27:51.110Z,5.40
2018-04-04T17:30:18.546Z,5.80
2018-04-04T17:32:46.760Z,5.00
2018-04-04T17:35:14.197Z,4.20
2018-04-04T17:37:41.622Z,5.10
2018-04-04T17:40:09.865Z,11.53
2018-04-04T17:42:37.280Z,5.40
2018-04-04T17:45:04.769Z,6.73
2018-04-04T17:47:32.199Z,8.10
2018-04-04T17:49:59.647Z,9.97
2018-04-04T17:52:27.080Z,10.70
2018-04-04T17:54:55.301Z,8.27
2018-04-04T17:57:22.729Z,6.80
2018-04-04T17:59:50.948Z,5.00
2018-04-04T18:02:18.360Z,6.97
2018-04-04T18:04:46.568Z,6.80
2018-04-04T18:07:14.086Z,6.30
2018-04-04T18:09:41.475Z,6.70
2018-04-04T18:12:08.958Z,6.93
2018-04-04T18:14:36.402Z,9.00
2018-04-04T18:17:03.969Z,8.80
2018-04-04T18:19:31.411Z,10.80
2018-04-04T18:21:58.855Z,8.20
2018-04-04T18:24:26.284Z,7.33
2018-04-04T18:26:54.494Z,7.73
2018-04-04T18:29:21.970Z,8.97
2018-04-04T18:31:49.414Z,7.03
2018-04-04T18:34:16.848Z,7.43
2018-04-04T18:36:44.282Z,8.53
2018-04-04T18:39:12.505Z,9.90
2018-04-04T18:41:39.981Z,13.00
2018-04-04T18:44:07.444Z,10.90
2018-04-04T18:46:34.945Z,5.50
2018-04-04T18:49:02.332Z,7.50
2018-04-04T18:51:29.779Z,7.90
2018-04-04T18:53:57.201Z,8.70
2018-04-04T18:56:25.410Z,8.00
2018-04-04T18:58:52.832Z,8.70
2018-04-04T19:01:21.030Z,10.90
2018-04-04T19:03:48.504Z,8.97
2018-04-04T19:06:15.924Z,9.57
2018-04-04T19:08:44.136Z,14.97
2018-04-04T19:11:11.628Z,7.90
2018-04-04T19:13:39.058Z,11.13
2018-04-04T19:16:06.497Z,20.33
2018-04-04T19:18:33.966Z,17.37
2018-04-04T19:21:01.441Z,21.17
2018-04-04T19:23:28.881Z,24.60
2018-04-04T19:25:56.335Z,23.07
2018-04-04T19:28:23.844Z,12.97
2018-04-04T19:30:52.038Z,15.37
2018-04-04T19:33:20.245Z,14.70
2018-04-04T19:35:47.682Z,20.17
2018-04-04T19:38:15.112Z,13.27
2018-04-04T19:40:42.567Z,12.07
2018-04-04T19:43:10.125Z,12.17
2018-04-04T19:45:38.452Z,18.33
2018-04-04T19:48:05.920Z,12.43
2018-04-04T19:50:33.390Z,16.83
2018-04-04T19:53:00.811Z,14.97
2018-04-04T19:55:28.303Z,18.50
2018-04-04T19:57:55.718Z,12.87
2018-04-04T20:00:23.238Z,14.53
2018-04-04T20:02:50.771Z,11.37
2018-04-04T20:05:18.201Z,17.30
2018-04-04T20:07:45.640Z,14.50
2018-04-04T20:10:13.849Z,14.97
2018-04-04T20:12:41.278Z,16.67
2018-04-04T20:15:09.534Z,17.63
2018-04-04T20:17:37.052Z,20.10
2018-04-04T20:20:04.525Z,23.53
2018-04-04T20:22:31.957Z,18.50
2018-04-04T20:24:59.404Z,24.33
2018-04-04T20:27:26.838Z,42.40
2018-04-04T20:29:55.031Z,57.10
2018-04-04T20:32:22.482Z,44.03
2018-04-04T20:34:49.976Z,30.30
2018-04-04T20:37:17.497Z,31.13
2018-04-04T20:39:44.929Z,24.23
2018-04-04T20:42:13.131Z,22.50
2018-04-04T20:44:40.564Z,22.33
2018-04-04T20:47:08.808Z,18.03
2018-04-04T20:49:36.242Z,19.90
2018-04-04T20:52:03.676Z,17.10
2018-04-04T20:54:31.141Z,23.77
2018-04-04T20:56:58.633Z,26.13
2018-04-04T20:59:26.073Z,22.30
2018-04-04T21:01:53.518Z,22.43
2018-04-04T21:04:20.950Z,22.30
2018-04-04T21:06:48.464Z,22.23
2018-04-04T21:09:15.904Z,18.93
2018-04-04T21:11:43.341Z,20.30
2018-04-04T21:14:10.778Z,17.77
2018-04-04T21:16:38.261Z,20.53
2018-04-04T21:19:05.693Z,18.07
2018-04-04T21:21:33.133Z,18.67
2018-04-04T21:24:01.344Z,20.47
2018-04-04T21:26:28.777Z,19.70
2018-04-04T21:28:56.994Z,16.67
2018-04-04T21:31:24.462Z,27.90
2018-04-04T21:33:51.922Z,23.50
2018-04-04T21:36:19.359Z,20.57
2018-04-04T21:38:46.815Z,18.83
2018-04-04T21:41:14.293Z,21.27
2018-04-04T21:43:41.748Z,26.50
2018-04-04T21:46:10.219Z,25.03
2018-04-04T21:48:37.659Z,24.23
2018-04-04T21:51:05.100Z,20.50
2018-04-04T21:53:32.577Z,23.90
2018-04-04T21:56:00.011Z,28.13
2018-04-04T21:58:28.208Z,21.60
2018-04-04T22:00:55.710Z,22.00
2018-04-04T22:03:23.175Z,22.13
2018-04-04T22:05:50.632Z,24.17
2018-04-04T22:08:21.361Z,22.43
2018-04-04T22:10:50.288Z,24.27
2018-04-04T22:13:17.725Z,24.13
2018-04-04T22:15:46.022Z,22.13
2018-04-04T22:18:14.192Z,20.63
2018-04-04T22:20:41.799Z,19.17
2018-04-04T22:23:09.235Z,15.73
2018-04-04T22:25:36.668Z,20.03
2018-04-04T22:28:04.281Z,12.37
2018-04-04T22:30:31.781Z,9.77
2018-04-04T22:32:59.984Z,6.53
2018-04-04T22:35:27.444Z,8.03
2018-04-04T22:37:54.952Z,5.83
2018-04-04T22:40:23.200Z,4.87
2018-04-04T22:42:50.617Z,3.70
2018-04-04T22:45:18.072Z,6.53
2018-04-04T22:47:46.265Z,7.40
2018-04-04T22:50:13.715Z,6.37
2018-04-04T22:52:41.157Z,2.93
2018-04-04T22:55:08.581Z,4.40
2018-04-04T22:57:36.007Z,4.57
2018-04-04T23:00:03.441Z,6.33
2018-04-04T23:02:30.876Z,5.60
2018-04-04T23:04:58.304Z,4.27
2018-04-04T23:07:25.736Z,3.87
2018-04-04T23:09:53.176Z,4.77
2018-04-04T23:12:20.611Z,6.17
2018-04-04T23:14:48.048Z,5.23
2018-04-04T23:17:16.263Z,4.50
2018-04-04T23:19:43.717Z,5.20
2018-04-04T23:22:11.155Z,4.10
2018-04-04T23:24:38.603Z,5.33
2018-04-04T23:27:06.033Z,7.23
2018-04-04T23:29:33.465Z,5.40
2018-04-04T23:32:00.888Z,4.03
2018-04-04T23:34:28.360Z,5.17
2018-04-04T23:36:55.798Z,4.47
2018-04-04T23:39:23.259Z,5.60
2018-04-04T23:41:51.446Z,6.33
2018-04-04T23:44:18.909Z,4.20
2018-04-04T23:46:46.362Z,5.50
2018-04-04T23:49:13.781Z,4.03
2018-04-04T23:51:41.976Z,9.27
2018-04-04T23:54:09.411Z,7.70
2018-04-04T23:56:37.605Z,7.30
2018-04-04T23:59:05.041Z,7.53
